< < Back
Terminal Aerodrome Forecast


Current Version              Previous Versions:   1  2  3  4  5  6  7  8  9  

Terminal Aerodrome Forecast

955
FTUS44 KHUN 261130
TAFHSV
TAF
KHSV 261130Z 2612/2712 34005KT 4SM BR OVC030
     FM261800 35005KT P6SM BKN050
     FM270400 35005KT P6SM BKN010=



Latest METAR

643
SAUS80 KWBC 270000 RRA
MTRHSV
METAR KHSV 262353Z 00000KT 10SM SCT050 03/M02 A3013 RMK AO2 SLP208 4/003
T00331022 10067 20028 53021


USA.gov is the U.S. government's official web portal to all federal, state and local government web resources and services.